createdAt,value
2019-03-24T00:00:41.934Z,51.70
2019-03-24T00:03:11.663Z,46.83
2019-03-24T00:05:41.312Z,53.47
2019-03-24T00:08:10.957Z,50.77
2019-03-24T00:10:40.571Z,51.07
2019-03-24T00:13:10.276Z,55.87
2019-03-24T00:15:40.002Z,52.50
2019-03-24T00:18:09.663Z,54.97
2019-03-24T00:20:39.350Z,56.47
2019-03-24T00:23:09.105Z,57.33
2019-03-24T00:25:38.754Z,55.63
2019-03-24T00:28:08.385Z,53.10
2019-03-24T00:30:38.027Z,50.13
2019-03-24T00:33:07.639Z,47.50
2019-03-24T00:35:37.275Z,52.30
2019-03-24T00:38:06.967Z,47.60
2019-03-24T00:40:36.727Z,49.50
2019-03-24T00:43:06.359Z,47.77
2019-03-24T00:45:36.950Z,46.97
2019-03-24T00:48:06.957Z,50.17
2019-03-24T00:50:36.687Z,52.03
2019-03-24T00:53:06.299Z,46.30
2019-03-24T00:55:35.943Z,46.00
2019-03-24T00:58:05.561Z,51.17
2019-03-24T01:00:48.622Z,45.43
2019-03-24T01:03:18.392Z,48.10
2019-03-24T01:05:48.337Z,46.80
2019-03-24T01:08:17.963Z,47.13
2019-03-24T01:10:47.648Z,44.60
2019-03-24T01:13:17.288Z,43.87
2019-03-24T01:15:47.943Z,47.47
2019-03-24T01:18:17.920Z,46.13
2019-03-24T01:20:47.547Z,49.70
2019-03-24T01:23:17.254Z,45.93
2019-03-24T01:25:46.954Z,49.37
2019-03-24T01:28:16.584Z,46.33
2019-03-24T01:30:46.301Z,48.13
2019-03-24T01:33:15.927Z,47.00
2019-03-24T01:35:45.555Z,48.20
2019-03-24T01:38:15.162Z,46.17
2019-03-24T01:40:44.854Z,48.20
2019-03-24T01:43:14.435Z,46.60
2019-03-24T01:45:44.054Z,51.67
2019-03-24T01:48:15.459Z,56.47
2019-03-24T01:50:45.084Z,53.10
2019-03-24T01:53:14.699Z,55.30
2019-03-24T01:55:44.341Z,48.80
2019-03-24T01:58:13.959Z,51.00
2019-03-24T02:00:43.694Z,54.10
2019-03-24T02:03:13.305Z,56.70
2019-03-24T02:05:42.932Z,55.87
2019-03-24T02:08:12.562Z,58.10
2019-03-24T02:10:42.209Z,54.23
2019-03-24T02:13:11.912Z,55.53
2019-03-24T02:15:41.581Z,52.20
2019-03-24T02:18:11.172Z,52.53
2019-03-24T02:20:40.817Z,52.90
2019-03-24T02:23:10.467Z,54.13
2019-03-24T02:25:40.142Z,52.57
2019-03-24T02:28:09.704Z,49.23
2019-03-24T02:30:39.341Z,55.23
2019-03-24T02:33:09.027Z,48.53
2019-03-24T02:35:38.674Z,50.57
2019-03-24T02:38:08.339Z,47.30
2019-03-24T02:40:37.974Z,45.43
2019-03-24T02:43:07.605Z,47.07
2019-03-24T02:45:37.277Z,46.13
2019-03-24T02:48:06.924Z,48.63
2019-03-24T02:50:36.566Z,46.37
2019-03-24T02:53:06.214Z,49.57
2019-03-24T02:55:35.854Z,49.33
2019-03-24T02:58:05.516Z,49.37
2019-03-24T03:00:35.193Z,50.43
2019-03-24T03:03:04.833Z,47.60
2019-03-24T03:05:34.442Z,52.53
2019-03-24T03:08:04.089Z,50.57
2019-03-24T03:10:33.865Z,46.77
2019-03-24T03:13:03.655Z,46.10
2019-03-24T03:15:33.296Z,46.80
2019-03-24T03:18:02.949Z,43.80
2019-03-24T03:20:32.581Z,42.23
2019-03-24T03:23:02.229Z,46.13
2019-03-24T03:25:31.869Z,43.03
2019-03-24T03:28:01.462Z,45.03
2019-03-24T03:30:31.174Z,43.83
2019-03-24T03:33:00.786Z,47.13
2019-03-24T03:35:30.443Z,46.67
2019-03-24T03:38:00.103Z,41.53
2019-03-24T03:40:29.847Z,47.53
2019-03-24T03:42:59.579Z,47.87
2019-03-24T03:45:29.686Z,42.97
2019-03-24T03:47:59.477Z,48.60
2019-03-24T03:50:29.074Z,42.47
2019-03-24T03:52:58.798Z,47.90
2019-03-24T03:55:28.406Z,44.10
2019-03-24T03:57:58.079Z,41.07
2019-03-24T04:00:34.017Z,43.83
2019-03-24T04:03:04.315Z,40.07
2019-03-24T04:05:34.061Z,45.33
2019-03-24T04:08:04.008Z,43.70
2019-03-24T04:10:33.861Z,42.57
2019-03-24T04:13:03.503Z,41.73
2019-03-24T04:15:33.111Z,43.70
2019-03-24T04:18:02.730Z,45.10
2019-03-24T04:20:32.386Z,42.87
2019-03-24T04:23:02.097Z,42.60
2019-03-24T04:25:31.715Z,45.70
2019-03-24T04:28:01.396Z,47.57
2019-03-24T04:30:31.008Z,46.10
2019-03-24T04:33:00.823Z,40.97
2019-03-24T04:35:30.427Z,42.60
2019-03-24T04:38:00.180Z,44.23
2019-03-24T04:40:29.866Z,43.60
2019-03-24T04:42:59.612Z,43.37
2019-03-24T04:45:29.291Z,44.83
2019-03-24T04:47:59.018Z,41.50
2019-03-24T04:50:28.653Z,45.60
2019-03-24T04:52:58.374Z,42.87
2019-03-24T04:55:28.021Z,42.70
2019-03-24T04:57:57.760Z,42.87
2019-03-24T05:00:35.950Z,42.93
2019-03-24T05:03:05.751Z,42.90
2019-03-24T05:05:35.642Z,40.73
2019-03-24T05:08:05.479Z,39.87
2019-03-24T05:10:35.460Z,44.30
2019-03-24T05:13:05.082Z,44.20
2019-03-24T05:15:34.745Z,41.07
2019-03-24T05:18:04.438Z,42.60
2019-03-24T05:20:34.089Z,38.70
2019-03-24T05:23:03.786Z,36.93
2019-03-24T05:25:33.385Z,43.20
2019-03-24T05:28:03.055Z,42.23
2019-03-24T05:30:32.673Z,43.57
2019-03-24T05:33:02.365Z,36.77
2019-03-24T05:35:31.967Z,38.77
2019-03-24T05:38:01.575Z,37.73
2019-03-24T05:40:31.247Z,39.00
2019-03-24T05:43:00.881Z,41.77
2019-03-24T05:45:30.563Z,42.57
2019-03-24T05:48:00.212Z,37.67
2019-03-24T05:50:29.851Z,39.83
2019-03-24T05:52:59.495Z,39.03
2019-03-24T05:55:29.003Z,39.57
2019-03-24T05:57:58.756Z,40.00
2019-03-24T06:00:28.539Z,37.27
2019-03-24T06:02:58.132Z,38.03
2019-03-24T06:05:27.779Z,37.97
2019-03-24T06:07:57.539Z,40.87
2019-03-24T06:10:27.084Z,38.53
2019-03-24T06:12:56.898Z,40.20
2019-03-24T06:15:26.526Z,37.50
2019-03-24T06:17:56.180Z,40.30
2019-03-24T06:20:25.830Z,39.27
2019-03-24T06:22:55.583Z,32.73
2019-03-24T06:25:25.218Z,41.07
2019-03-24T06:27:54.901Z,46.37
2019-03-24T06:30:24.509Z,46.50
2019-03-24T06:32:54.088Z,45.33
2019-03-24T06:35:23.779Z,43.77
2019-03-24T06:37:53.374Z,49.10
2019-03-24T06:40:23.046Z,41.00
2019-03-24T06:42:52.697Z,44.23
2019-03-24T06:45:28.347Z,44.57
2019-03-24T06:47:57.900Z,43.33
2019-03-24T06:50:25.087Z,42.50
2019-03-24T06:52:54.703Z,47.17
2019-03-24T06:55:24.360Z,41.73
2019-03-24T06:57:53.976Z,44.53
2019-03-24T07:00:23.610Z,44.10
2019-03-24T07:02:53.300Z,48.77
2019-03-24T07:05:23.042Z,43.73
2019-03-24T07:07:52.678Z,44.33
2019-03-24T07:10:22.296Z,47.53
2019-03-24T07:12:51.916Z,47.80
2019-03-24T07:15:21.554Z,43.80
2019-03-24T07:17:51.139Z,48.90
2019-03-24T07:20:20.799Z,47.83
2019-03-24T07:22:50.434Z,43.53
2019-03-24T07:25:20.065Z,51.70
2019-03-24T07:27:49.702Z,49.43
2019-03-24T07:30:19.538Z,53.23
2019-03-24T07:32:49.194Z,51.70
2019-03-24T07:35:18.855Z,54.13
2019-03-24T07:37:48.594Z,55.77
2019-03-24T07:40:18.304Z,49.30
2019-03-24T07:42:47.918Z,50.20
2019-03-24T07:45:17.635Z,47.77
2019-03-24T07:47:49.002Z,48.23
2019-03-24T07:50:19.044Z,52.20
2019-03-24T07:52:48.642Z,53.27
2019-03-24T07:55:18.283Z,50.37
2019-03-24T07:57:47.888Z,44.07
2019-03-24T08:00:29.167Z,47.00
2019-03-24T08:02:58.795Z,48.43
2019-03-24T08:05:28.433Z,45.37
2019-03-24T08:07:58.080Z,49.43
2019-03-24T08:10:27.776Z,45.70
2019-03-24T08:12:57.534Z,47.97
2019-03-24T08:15:27.275Z,48.93
2019-03-24T08:17:56.881Z,46.93
2019-03-24T08:20:26.495Z,48.10
2019-03-24T08:22:56.115Z,53.50
2019-03-24T08:25:25.826Z,50.90
2019-03-24T08:27:55.486Z,50.63
2019-03-24T08:30:35.756Z,50.30
2019-03-24T08:33:05.528Z,41.63
2019-03-24T08:35:35.285Z,41.33
2019-03-24T08:38:05.495Z,43.30
2019-03-24T08:40:35.152Z,44.73
2019-03-24T08:43:05.189Z,44.63
2019-03-24T08:45:34.862Z,42.23
2019-03-24T08:48:04.621Z,42.83
2019-03-24T08:50:34.311Z,39.37
2019-03-24T08:53:03.950Z,39.37
2019-03-24T08:55:33.757Z,37.40
2019-03-24T08:58:03.382Z,38.77
2019-03-24T09:00:33.489Z,38.53
2019-03-24T09:03:04.089Z,39.97
2019-03-24T09:05:33.897Z,38.07
2019-03-24T09:08:03.567Z,36.40
2019-03-24T09:10:33.195Z,37.57
2019-03-24T09:13:03.319Z,42.83
2019-03-24T09:15:32.949Z,40.77
2019-03-24T09:18:02.585Z,37.73
2019-03-24T09:20:41.193Z,43.73
2019-03-24T09:23:04.285Z,41.90
2019-03-24T09:25:34.156Z,37.40
2019-03-24T09:28:04.245Z,38.10
2019-03-24T09:30:35.574Z,38.73
2019-03-24T09:33:05.597Z,38.17
2019-03-24T09:35:35.316Z,36.93
2019-03-24T09:38:05.370Z,40.20
2019-03-24T09:40:36.638Z,34.70
2019-03-24T09:43:06.799Z,36.43
2019-03-24T09:45:36.542Z,41.93
2019-03-24T09:48:06.367Z,35.33
2019-03-24T09:50:36.507Z,35.23
2019-03-24T09:53:07.565Z,38.03
2019-03-24T09:55:37.452Z,33.57
2019-03-24T09:58:07.093Z,39.07
2019-03-24T10:00:36.739Z,35.60
2019-03-24T10:03:06.435Z,35.23
2019-03-24T10:05:36.072Z,37.40
2019-03-24T10:08:05.812Z,35.00
2019-03-24T10:10:35.420Z,34.40
2019-03-24T10:13:05.060Z,35.00
2019-03-24T10:15:34.698Z,34.20
2019-03-24T10:18:20.372Z,38.27
2019-03-24T10:20:50.075Z,39.40
2019-03-24T10:23:19.709Z,37.00
2019-03-24T10:25:49.334Z,35.87
2019-03-24T10:28:19.083Z,38.13
2019-03-24T10:30:49.902Z,38.70
2019-03-24T10:33:19.646Z,36.67
2019-03-24T10:35:49.276Z,40.37
2019-03-24T10:38:18.904Z,35.60
2019-03-24T10:40:48.639Z,33.70
2019-03-24T10:43:18.278Z,39.57
2019-03-24T10:45:47.931Z,39.33
2019-03-24T10:48:17.667Z,43.40
2019-03-24T10:50:47.276Z,39.47
2019-03-24T10:53:16.923Z,40.80
2019-03-24T10:55:46.563Z,39.70
2019-03-24T10:58:16.212Z,47.33
2019-03-24T11:00:46.104Z,44.67
2019-03-24T11:03:15.772Z,42.40
2019-03-24T11:05:45.383Z,45.70
2019-03-24T11:08:15.058Z,41.27
2019-03-24T11:10:44.677Z,44.23
2019-03-24T11:13:14.287Z,44.33
2019-03-24T11:15:43.947Z,45.20
2019-03-24T11:18:13.723Z,42.97
2019-03-24T11:20:43.252Z,38.50
2019-03-24T11:23:12.906Z,38.97
2019-03-24T11:25:42.515Z,42.50
2019-03-24T11:28:12.147Z,35.97
2019-03-24T11:30:41.771Z,39.83
2019-03-24T11:33:11.451Z,40.50
2019-03-24T11:35:41.145Z,38.37
2019-03-24T11:38:10.806Z,40.47
2019-03-24T11:40:40.419Z,39.27
2019-03-24T11:43:10.049Z,44.45
2019-03-24T11:45:39.650Z,41.42
2019-03-24T11:48:09.322Z,38.30
2019-03-24T11:50:38.999Z,39.13
2019-03-24T11:53:08.669Z,36.42
2019-03-24T11:55:38.378Z,37.65
2019-03-24T11:58:08.001Z,38.58
2019-03-24T12:00:39.680Z,42.35
2019-03-24T12:03:09.332Z,40.90
2019-03-24T12:05:39.137Z,44.33
2019-03-24T12:08:08.871Z,40.92
2019-03-24T12:10:38.474Z,38.45
2019-03-24T12:13:08.143Z,35.80
2019-03-24T12:15:37.805Z,40.23
2019-03-24T12:18:07.448Z,41.48
2019-03-24T12:20:37.096Z,44.63
2019-03-24T12:23:06.725Z,41.30
2019-03-24T12:25:36.408Z,41.10
2019-03-24T12:28:06.060Z,41.73
2019-03-24T12:30:35.680Z,39.25
2019-03-24T12:33:05.353Z,40.95
2019-03-24T12:35:35.014Z,35.43
2019-03-24T12:38:04.659Z,38.38
2019-03-24T12:40:34.277Z,41.37
2019-03-24T12:43:03.955Z,39.18
2019-03-24T12:45:33.819Z,36.53
2019-03-24T12:48:03.555Z,39.27
2019-03-24T12:50:33.164Z,41.75
2019-03-24T12:53:02.755Z,38.83
2019-03-24T12:55:32.353Z,34.18
2019-03-24T12:58:01.996Z,38.23
2019-03-24T13:00:36.482Z,40.30
2019-03-24T13:03:06.249Z,35.85
2019-03-24T13:05:35.889Z,34.48
2019-03-24T13:08:18.555Z,38.58
2019-03-24T13:10:48.641Z,38.60
2019-03-24T13:13:18.361Z,38.85
2019-03-24T13:15:47.999Z,40.98
2019-03-24T13:18:18.080Z,41.68
2019-03-24T13:20:48.915Z,41.55
2019-03-24T13:23:18.588Z,42.50
2019-03-24T13:25:50.449Z,40.48
2019-03-24T13:28:19.541Z,41.42
2019-03-24T13:30:49.191Z,37.90
2019-03-24T13:33:18.840Z,39.65
2019-03-24T13:35:51.857Z,37.10
2019-03-24T13:38:21.523Z,34.13
2019-03-24T13:40:51.739Z,36.45
2019-03-24T13:43:21.236Z,32.17
2019-03-24T13:45:50.891Z,32.83
2019-03-24T13:48:20.429Z,31.90
2019-03-24T13:50:50.093Z,29.92
2019-03-24T13:53:19.661Z,31.35
2019-03-24T13:55:49.467Z,28.30
2019-03-24T13:58:19.199Z,31.05
2019-03-24T14:00:48.873Z,34.70
2019-03-24T14:03:18.565Z,28.38
2019-03-24T14:05:48.236Z,30.02
2019-03-24T14:08:17.886Z,28.45
2019-03-24T14:10:47.534Z,28.97
2019-03-24T14:13:17.208Z,32.33
2019-03-24T14:15:46.885Z,28.07
2019-03-24T14:18:16.553Z,28.20
2019-03-24T14:20:46.203Z,27.42
2019-03-24T14:23:15.814Z,27.70
2019-03-24T14:25:45.458Z,30.48
2019-03-24T14:28:15.185Z,26.25
2019-03-24T14:30:48.838Z,26.68
2019-03-24T14:33:18.568Z,27.93
2019-03-24T14:35:48.291Z,27.70
2019-03-24T14:38:17.910Z,30.15
2019-03-24T14:40:47.574Z,30.35
2019-03-24T14:43:17.211Z,33.08
2019-03-24T14:45:46.911Z,25.97
2019-03-24T14:48:18.115Z,31.35
2019-03-24T14:50:54.332Z,30.27
2019-03-24T14:53:20.252Z,33.63
2019-03-24T14:55:49.934Z,33.95
2019-03-24T14:58:19.574Z,27.30
2019-03-24T15:00:49.417Z,28.60
2019-03-24T15:03:19.129Z,30.95
2019-03-24T15:05:48.860Z,30.77
2019-03-24T15:08:18.601Z,31.57
2019-03-24T15:10:48.364Z,28.67
2019-03-24T15:13:18.005Z,31.42
2019-03-24T15:15:47.615Z,29.43
2019-03-24T15:18:17.242Z,29.10
2019-03-24T15:20:46.983Z,29.42
2019-03-24T15:23:16.630Z,31.10
2019-03-24T15:25:46.289Z,28.00
2019-03-24T15:28:15.886Z,27.00
2019-03-24T15:30:45.513Z,29.87
2019-03-24T15:33:15.236Z,26.60
2019-03-24T15:35:44.895Z,24.60
2019-03-24T15:38:14.536Z,25.93
2019-03-24T15:40:44.239Z,27.93
2019-03-24T15:43:13.881Z,24.57
2019-03-24T15:45:43.585Z,25.77
2019-03-24T15:48:13.197Z,24.20
2019-03-24T15:50:42.844Z,26.73
2019-03-24T15:53:12.531Z,23.83
2019-03-24T15:55:42.289Z,23.65
2019-03-24T15:58:11.909Z,22.07
2019-03-24T16:00:48.325Z,23.50
2019-03-24T16:03:18.909Z,22.87
2019-03-24T16:05:48.682Z,22.60
2019-03-24T16:08:18.411Z,23.30
2019-03-24T16:10:48.092Z,23.37
2019-03-24T16:13:17.717Z,22.53
2019-03-24T16:15:47.460Z,22.90
2019-03-24T16:18:17.105Z,21.47
2019-03-24T16:20:46.767Z,24.90
2019-03-24T16:23:16.402Z,23.00
2019-03-24T16:25:46.056Z,20.53
2019-03-24T16:28:15.712Z,21.90
2019-03-24T16:30:45.420Z,23.30
2019-03-24T16:33:15.024Z,21.03
2019-03-24T16:35:44.643Z,19.17
2019-03-24T16:38:14.266Z,20.30
2019-03-24T16:40:43.981Z,18.60
2019-03-24T16:43:13.547Z,20.67
2019-03-24T16:45:43.210Z,16.83
2019-03-24T16:48:12.825Z,19.57
2019-03-24T16:50:42.455Z,19.00
2019-03-24T16:53:12.112Z,19.33
2019-03-24T16:55:41.789Z,17.03
2019-03-24T16:58:11.430Z,18.23
2019-03-24T17:00:41.046Z,16.93
2019-03-24T17:03:10.654Z,18.23
2019-03-24T17:05:40.347Z,18.27
2019-03-24T17:08:09.965Z,17.37
2019-03-24T17:10:39.616Z,16.73
2019-03-24T17:13:09.234Z,17.63
2019-03-24T17:15:38.840Z,16.53
2019-03-24T17:18:08.562Z,16.37
2019-03-24T17:20:38.193Z,18.17
2019-03-24T17:23:07.838Z,16.33
2019-03-24T17:25:37.431Z,15.07
2019-03-24T17:28:07.058Z,16.63
2019-03-24T17:30:36.682Z,16.10
2019-03-24T17:33:06.333Z,15.10
2019-03-24T17:35:36.080Z,14.23
2019-03-24T17:38:05.882Z,14.87
2019-03-24T17:40:38.766Z,18.07
2019-03-24T17:43:06.960Z,15.87
2019-03-24T17:45:36.605Z,14.20
2019-03-24T17:48:06.293Z,15.17
2019-03-24T17:50:35.927Z,13.87
2019-03-24T17:53:06.803Z,16.07
2019-03-24T17:55:36.686Z,13.37
2019-03-24T17:58:06.344Z,12.80
2019-03-24T18:00:40.878Z,12.93
2019-03-24T18:03:10.507Z,13.67
2019-03-24T18:05:41.960Z,14.83
2019-03-24T18:08:11.635Z,12.43
2019-03-24T18:10:41.270Z,12.40
2019-03-24T18:13:10.958Z,12.33
2019-03-24T18:15:40.571Z,16.07
2019-03-24T18:18:10.222Z,13.03
2019-03-24T18:20:40.038Z,12.07
2019-03-24T18:23:09.687Z,13.00
2019-03-24T18:25:39.302Z,12.03
2019-03-24T18:28:08.942Z,12.23
2019-03-24T18:30:38.599Z,13.07
2019-03-24T18:33:08.246Z,12.80
2019-03-24T18:35:38.009Z,11.27
2019-03-24T18:38:07.718Z,14.07
2019-03-24T18:40:37.345Z,11.77
2019-03-24T18:43:07.070Z,13.47
2019-03-24T18:45:36.687Z,15.73
2019-03-24T18:48:06.737Z,14.23
2019-03-24T18:50:36.416Z,13.43
2019-03-24T18:53:06.057Z,15.13
2019-03-24T18:55:36.118Z,18.23
2019-03-24T18:58:06.004Z,14.90
2019-03-24T19:00:35.687Z,17.33
2019-03-24T19:03:05.351Z,15.37
2019-03-24T19:05:35.291Z,15.90
2019-03-24T19:08:05.354Z,13.97
2019-03-24T19:10:35.064Z,15.97
2019-03-24T19:13:04.781Z,13.03
2019-03-24T19:15:34.433Z,14.60
2019-03-24T19:18:04.309Z,15.37
2019-03-24T19:20:33.955Z,13.03
2019-03-24T19:23:03.684Z,12.73
2019-03-24T19:25:34.430Z,14.33
2019-03-24T19:28:04.118Z,13.27
2019-03-24T19:30:35.923Z,13.63
2019-03-24T19:33:05.750Z,12.50
2019-03-24T19:35:35.380Z,13.37
2019-03-24T19:38:05.636Z,14.23
2019-03-24T19:40:35.374Z,14.07
2019-03-24T19:43:05.070Z,14.30
2019-03-24T19:45:34.710Z,16.07
2019-03-24T19:48:04.471Z,16.23
2019-03-24T19:50:34.096Z,15.50
2019-03-24T19:53:03.768Z,16.87
2019-03-24T19:55:33.382Z,19.93
2019-03-24T19:58:03.044Z,19.50
2019-03-24T20:00:32.690Z,20.83
2019-03-24T20:03:02.321Z,16.57
2019-03-24T20:05:31.932Z,17.23
2019-03-24T20:08:01.610Z,16.43
2019-03-24T20:10:31.244Z,15.13
2019-03-24T20:13:00.954Z,13.27
2019-03-24T20:15:30.603Z,14.30
2019-03-24T20:18:00.265Z,13.50
2019-03-24T20:20:29.875Z,13.23
2019-03-24T20:22:59.514Z,14.37
2019-03-24T20:25:29.150Z,15.43
2019-03-24T20:27:58.788Z,15.47
2019-03-24T20:30:28.407Z,15.53
2019-03-24T20:32:58.063Z,13.53
2019-03-24T20:35:27.660Z,13.37
2019-03-24T20:37:57.309Z,13.63
2019-03-24T20:40:26.968Z,13.73
2019-03-24T20:42:56.741Z,15.20
2019-03-24T20:45:26.476Z,15.83
2019-03-24T20:47:56.188Z,15.77
2019-03-24T20:50:25.837Z,13.83
2019-03-24T20:53:04.159Z,16.00
2019-03-24T20:55:26.829Z,14.37
2019-03-24T20:57:56.484Z,13.57
2019-03-24T21:00:36.227Z,15.53
2019-03-24T21:03:08.485Z,15.50
2019-03-24T21:05:38.387Z,15.47
2019-03-24T21:08:08.176Z,14.20
2019-03-24T21:10:37.809Z,16.77
2019-03-24T21:13:07.455Z,16.20
2019-03-24T21:15:37.115Z,12.33
2019-03-24T21:18:06.753Z,16.33
2019-03-24T21:20:36.335Z,14.50
2019-03-24T21:23:06.000Z,17.53
2019-03-24T21:25:35.618Z,15.77
2019-03-24T21:28:05.332Z,14.73
2019-03-24T21:30:36.594Z,14.93
2019-03-24T21:33:06.946Z,15.63
2019-03-24T21:35:36.583Z,13.90
2019-03-24T21:38:06.324Z,15.03
2019-03-24T21:40:35.963Z,14.30
2019-03-24T21:43:06.566Z,12.80
2019-03-24T21:45:36.548Z,12.70
2019-03-24T21:48:06.440Z,13.23
2019-03-24T21:50:36.123Z,13.83
2019-03-24T21:53:05.979Z,12.97
2019-03-24T21:55:35.598Z,12.03
2019-03-24T21:58:05.415Z,11.90
2019-03-24T22:00:36.304Z,11.77
2019-03-24T22:03:06.210Z,12.13
2019-03-24T22:05:36.142Z,12.93
2019-03-24T22:08:06.364Z,12.83
2019-03-24T22:10:35.965Z,12.83
2019-03-24T22:13:05.687Z,14.30
2019-03-24T22:15:35.324Z,12.57
2019-03-24T22:18:05.190Z,15.70
2019-03-24T22:20:34.811Z,16.97
2019-03-24T22:23:04.444Z,14.70
2019-03-24T22:25:34.036Z,23.80
2019-03-24T22:28:03.674Z,21.00
2019-03-24T22:30:33.278Z,22.23
2019-03-24T22:33:02.926Z,22.23
2019-03-24T22:35:32.542Z,18.50
2019-03-24T22:38:02.146Z,20.40
2019-03-24T22:40:31.850Z,19.53
2019-03-24T22:43:01.470Z,16.70
2019-03-24T22:45:31.107Z,19.67
2019-03-24T22:48:00.717Z,15.43
2019-03-24T22:50:30.374Z,16.13
2019-03-24T22:52:59.892Z,14.63
2019-03-24T22:55:29.585Z,13.17
2019-03-24T22:57:59.173Z,12.87
2019-03-24T23:00:46.308Z,10.90
2019-03-24T23:03:16.135Z,13.23
2019-03-24T23:05:45.775Z,14.67
2019-03-24T23:08:15.312Z,11.87
2019-03-24T23:10:44.958Z,11.27
2019-03-24T23:13:14.550Z,12.53
2019-03-24T23:15:44.241Z,11.10
2019-03-24T23:18:13.777Z,13.30
2019-03-24T23:20:43.381Z,10.80
2019-03-24T23:23:13.017Z,12.40
2019-03-24T23:25:42.634Z,11.60
2019-03-24T23:28:12.428Z,12.53
2019-03-24T23:30:42.063Z,14.07
2019-03-24T23:33:11.673Z,10.10
2019-03-24T23:35:41.369Z,11.27
2019-03-24T23:38:10.974Z,9.77
2019-03-24T23:40:40.575Z,11.70
2019-03-24T23:43:10.184Z,9.53
2019-03-24T23:45:39.796Z,10.60
2019-03-24T23:48:09.410Z,8.70
2019-03-24T23:50:39.016Z,9.20
2019-03-24T23:53:08.601Z,8.33
2019-03-24T23:55:38.216Z,9.73
2019-03-24T23:58:07.796Z,9.70
